Time;durP1;ratioP1;P1;durP2;ratioP2;P2;SDS_P1;SDS_P2;PMS_P1;PMS_P2;Temp;Humidity;BMP_temperature;BMP_pressure;BME280_temperature;BME280_humidity;BME280_pressure;Samples;Min_cycle;Max_cycle;Signal;HPM_P1;HPM_P2
2023/03/18 00:02:02;;;;;;;16.13;9.35;;;11.10;99.90;;;;;;6247276;22;20024;-80
2023/03/18 00:04:28;;;;;;;16.67;9.70;;;11.00;99.90;;;;;;6273995;22;20016;-80
2023/03/18 00:06:54;;;;;;;16.08;9.30;;;11.10;99.90;;;;;;6274757;22;20084;-80
2023/03/18 00:09:20;;;;;;;16.02;9.32;;;11.00;99.90;;;;;;6221897;22;20018;-80
2023/03/18 00:11:45;;;;;;;14.68;9.77;;;11.10;99.90;;;;;;6246624;22;20054;-80
2023/03/18 00:14:11;;;;;;;14.63;9.07;;;11.10;99.90;;;;;;6274445;22;20086;-80
2023/03/18 00:16:37;;;;;;;16.73;9.68;;;11.10;99.90;;;;;;6221877;22;20016;-79
2023/03/18 00:19:03;;;;;;;16.27;9.70;;;11.20;99.90;;;;;;6247023;22;20292;-80
2023/03/18 00:21:29;;;;;;;13.98;9.20;;;11.10;99.90;;;;;;6274693;22;20217;-80
2023/03/18 00:23:57;;;;;;;14.10;8.70;;;11.10;99.90;;;;;;6246803;22;20030;-80
2023/03/18 00:26:24;;;;;;;13.88;9.00;;;11.10;99.90;;;;;;6274135;22;20077;-80
2023/03/18 00:28:50;;;;;;;14.55;8.80;;;11.20;99.90;;;;;;6247245;22;20004;-80
2023/03/18 00:31:16;;;;;;;13.80;9.43;;;11.20;99.90;;;;;;6246851;22;20007;-80
2023/03/18 00:33:44;;;;;;;16.10;8.95;;;11.20;99.90;;;;;;6221930;22;20015;-80
2023/03/18 00:36:14;;;;;;;14.05;9.63;;;11.30;99.90;;;;;;6274562;22;20015;-80
2023/03/18 00:38:45;;;;;;;15.30;9.00;;;11.20;99.90;;;;;;6246906;22;20007;-80
2023/03/18 00:41:14;;;;;;;14.75;9.38;;;11.40;99.90;;;;;;6221343;22;20022;-80
2023/03/18 00:43:53;;;;;;;14.27;9.13;;;11.20;99.90;;;;;;6221752;22;20062;-80
2023/03/18 00:46:23;;;;;;;13.18;9.80;;;11.30;99.90;;;;;;6274356;22;20016;-80
2023/03/18 00:48:49;;;;;;;12.85;9.65;;;11.20;99.90;;;;;;6246880;22;20079;-80
2023/03/18 00:51:16;;;;;;;13.50;10.00;;;11.20;99.90;;;;;;6221720;22;20015;-80
2023/03/18 00:53:45;;;;;;;15.85;10.50;;;11.30;99.90;;;;;;6274548;22;20018;-80
2023/03/18 00:56:12;;;;;;;14.88;10.85;;;11.20;99.90;;;;;;6220999;22;20418;-80
2023/03/18 00:58:38;;;;;;;16.17;11.02;;;11.20;99.90;;;;;;6246724;22;20450;-80
2023/03/18 01:01:05;;;;;;;17.40;10.80;;;11.10;99.90;;;;;;6246785;22;20031;-80
2023/03/18 01:03:32;;;;;;;18.10;11.60;;;11.10;99.90;;;;;;6246541;22;20015;-80
2023/03/18 01:06:03;;;;;;;16.55;11.75;;;11.00;99.90;;;;;;6274176;22;20011;-79
2023/03/18 01:08:29;;;;;;;16.35;12.05;;;11.00;99.90;;;;;;6274106;22;20012;-80
2023/03/18 01:10:56;;;;;;;17.90;12.27;;;10.90;99.90;;;;;;6246062;22;20016;-80
2023/03/18 01:13:24;;;;;;;17.05;12.20;;;10.80;99.90;;;;;;6247086;22;20018;-80
2023/03/18 01:15:50;;;;;;;19.17;13.25;;;10.80;99.90;;;;;;6274345;22;20012;-80
2023/03/18 01:18:17;;;;;;;16.85;13.27;;;10.70;99.90;;;;;;6274117;22;20019;-80
2023/03/18 01:20:43;;;;;;;21.08;14.05;;;10.70;99.90;;;;;;6246655;22;20091;-80
2023/03/18 01:23:10;;;;;;;16.83;13.98;;;10.60;99.90;;;;;;6273914;22;20011;-80
2023/03/18 01:25:37;;;;;;;22.48;14.38;;;10.60;99.90;;;;;;6273293;22;20276;-80
2023/03/18 01:28:04;;;;;;;19.90;15.55;;;10.50;99.90;;;;;;6246733;22;20115;-80
2023/03/18 01:30:30;;;;;;;22.35;15.45;;;10.40;99.90;;;;;;6273670;22;20007;-79
2023/03/18 01:32:56;;;;;;;20.77;14.65;;;10.40;99.90;;;;;;6246294;22;20148;-79
2023/03/18 01:35:22;;;;;;;24.38;15.50;;;10.30;99.90;;;;;;6274367;22;20012;-79
2023/03/18 01:37:48;;;;;;;19.80;15.93;;;10.30;99.90;;;;;;6246658;22;20041;-80
2023/03/18 01:40:15;;;;;;;26.17;17.23;;;10.30;99.90;;;;;;6245963;22;20015;-79
2023/03/18 01:42:42;;;;;;;21.60;16.45;;;10.30;99.90;;;;;;6246438;22;20011;-80
2023/03/18 01:45:16;;;;;;;22.75;17.00;;;10.20;99.90;;;;;;6246162;22;20016;-80
2023/03/18 01:47:46;;;;;;;24.40;17.95;;;10.30;99.90;;;;;;6273845;22;20016;-80
2023/03/18 01:50:14;;;;;;;22.08;19.40;;;10.20;99.90;;;;;;6246226;22;20098;-80
2023/03/18 01:52:42;;;;;;;27.92;19.25;;;10.30;99.90;;;;;;6273153;22;20007;-79
2023/03/18 01:55:16;;;;;;;26.70;20.15;;;10.20;99.90;;;;;;6273434;22;20523;-80
2023/03/18 01:57:43;;;;;;;25.17;19.60;;;10.20;99.90;;;;;;6246443;22;20081;-80
2023/03/18 02:00:10;;;;;;;24.27;19.58;;;10.20;99.90;;;;;;6246179;22;20026;-80
2023/03/18 02:02:39;;;;;;;29.17;21.13;;;10.20;99.90;;;;;;6246045;22;20022;-80
2023/03/18 02:05:07;;;;;;;27.98;21.45;;;10.40;99.90;;;;;;6246146;22;20015;-80
2023/03/18 02:07:34;;;;;;;24.95;21.80;;;10.20;99.90;;;;;;6220490;22;20019;-80
2023/03/18 02:10:17;;;;;;;27.70;21.10;;;10.20;99.90;;;;;;6246295;22;20086;-80
2023/03/18 02:12:47;;;;;;;27.63;20.20;;;10.20;99.90;;;;;;6246438;22;20426;-80
2023/03/18 02:15:17;;;;;;;29.55;21.83;;;10.10;99.90;;;;;;6273762;22;20397;-80
2023/03/18 02:17:52;;;;;;;24.70;21.27;;;10.10;99.90;;;;;;6273867;22;20047;-80
2023/03/18 02:20:37;;;;;;;27.38;22.65;;;10.20;99.90;;;;;;6246698;22;20065;-79
2023/03/18 02:23:08;;;;;;;26.42;21.88;;;10.10;99.90;;;;;;6248246;22;20047;-80
2023/03/18 02:25:44;;;;;;;26.73;23.35;;;10.30;99.90;;;;;;6275431;22;20102;-80
2023/03/18 02:28:13;;;;;;;27.02;24.02;;;10.10;99.90;;;;;;6275973;22;20389;-80
2023/03/18 02:30:49;;;;;;;35.67;25.48;;;10.10;99.90;;;;;;6248247;22;20012;-80
2023/03/18 02:33:18;;;;;;;33.63;26.40;;;10.00;99.90;;;;;;6248551;22;20030;-80
2023/03/18 02:35:46;;;;;;;34.60;25.88;;;10.00;99.90;;;;;;6248316;22;20019;-80
2023/03/18 02:38:11;;;;;;;31.50;27.10;;;10.00;99.90;;;;;;6248329;22;20094;-80
2023/03/18 02:40:39;;;;;;;36.70;28.33;;;10.00;99.90;;;;;;6248715;22;20043;-80
2023/03/18 02:43:20;;;;;;;34.28;27.08;;;10.00;99.90;;;;;;6222695;22;20170;-80
2023/03/18 02:46:09;;;;;;;33.80;26.52;;;10.00;99.90;;;;;;6275563;22;20365;-80
2023/03/18 02:48:42;;;;;;;35.30;27.42;;;9.90;99.90;;;;;;6275783;22;20078;-79
2023/03/18 02:51:09;;;;;;;33.97;28.77;;;9.90;99.90;;;;;;6275152;22;20012;-79
2023/03/18 02:53:35;;;;;;;35.45;29.58;;;9.80;99.90;;;;;;6275623;22;20019;-79
2023/03/18 02:56:01;;;;;;;33.90;29.13;;;9.80;99.90;;;;;;6248168;22;20023;-79
2023/03/18 02:58:27;;;;;;;31.67;28.25;;;9.70;99.90;;;;;;6223012;22;20008;-80
2023/03/18 03:00:53;;;;;;;32.58;28.98;;;9.90;99.90;;;;;;6247862;22;20016;-80
2023/03/18 03:03:20;;;;;;;37.88;29.35;;;9.70;99.90;;;;;;6275013;22;20020;-79
2023/03/18 03:05:46;;;;;;;34.85;28.92;;;9.70;99.90;;;;;;6247219;22;20050;-79
2023/03/18 03:08:12;;;;;;;39.25;30.92;;;9.60;99.90;;;;;;6222632;22;20082;-80
2023/03/18 03:10:38;;;;;;;37.03;30.58;;;9.60;99.90;;;;;;6275096;22;20073;-79
2023/03/18 03:13:05;;;;;;;35.67;29.67;;;9.60;99.90;;;;;;6248043;22;20011;-80
2023/03/18 03:15:31;;;;;;;40.25;30.05;;;9.60;99.90;;;;;;6247958;22;20346;-79
2023/03/18 03:17:57;;;;;;;40.75;31.75;;;9.50;99.90;;;;;;6247816;22;20441;-80
2023/03/18 03:20:24;;;;;;;35.45;30.70;;;9.50;99.90;;;;;;6274739;22;20022;-80
2023/03/18 03:22:50;;;;;;;39.67;31.75;;;9.50;99.90;;;;;;6275373;22;20007;-80
2023/03/18 03:25:15;;;;;;;36.70;32.40;;;9.60;99.90;;;;;;6247768;22;20027;-79
2023/03/18 03:27:42;;;;;;;36.10;32.17;;;9.40;99.90;;;;;;6275214;22;20003;-80
2023/03/18 03:30:10;;;;;;;43.28;33.00;;;9.40;99.90;;;;;;6247576;22;20019;-80
2023/03/18 03:32:36;;;;;;;38.60;31.42;;;9.40;99.90;;;;;;6247312;22;20138;-80
2023/03/18 03:35:02;;;;;;;41.33;33.20;;;9.50;99.90;;;;;;6247216;22;20468;-80
2023/03/18 03:37:28;;;;;;;38.25;33.72;;;9.40;99.90;;;;;;6275363;22;20307;-80
2023/03/18 03:39:54;;;;;;;40.78;32.90;;;9.70;99.90;;;;;;6248091;22;20018;-79
2023/03/18 03:42:19;;;;;;;41.97;34.28;;;9.50;99.90;;;;;;6275480;22;20014;-79
2023/03/18 03:44:46;;;;;;;36.28;31.17;;;9.40;99.90;;;;;;6247970;22;20054;-79
2023/03/18 03:47:12;;;;;;;45.25;34.08;;;9.50;99.90;;;;;;6247638;22;20015;-80
2023/03/18 03:49:38;;;;;;;37.53;31.35;;;9.40;99.90;;;;;;6274694;22;20010;-80
2023/03/18 03:52:03;;;;;;;41.55;33.03;;;9.60;99.90;;;;;;6247495;22;20046;-80
2023/03/18 03:54:29;;;;;;;41.03;34.33;;;9.40;99.90;;;;;;6274929;22;20016;-80
2023/03/18 03:56:55;;;;;;;39.00;32.60;;;9.40;99.90;;;;;;6275260;22;20016;-79
2023/03/18 03:59:21;;;;;;;39.67;33.38;;;9.40;99.90;;;;;;6274790;22;20057;-80
2023/03/18 04:01:47;;;;;;;42.20;32.22;;;9.30;99.90;;;;;;6222059;22;20024;-80
2023/03/18 04:04:14;;;;;;;40.05;33.65;;;9.30;99.90;;;;;;6273892;22;20047;-79
2023/03/18 04:06:39;;;;;;;41.13;33.88;;;9.20;99.90;;;;;;6247616;22;20012;-80
2023/03/18 04:09:05;;;;;;;37.97;32.28;;;9.20;99.90;;;;;;6274990;22;20307;-80
2023/03/18 04:11:31;;;;;;;38.67;33.10;;;9.20;99.90;;;;;;6247534;22;20016;-80
2023/03/18 04:13:56;;;;;;;36.92;31.15;;;9.10;99.90;;;;;;6247589;22;20016;-80
2023/03/18 04:16:22;;;;;;;36.55;31.40;;;9.10;99.90;;;;;;6247560;22;20079;-80
2023/03/18 04:18:48;;;;;;;38.05;33.25;;;9.20;99.90;;;;;;6246897;22;20426;-79
2023/03/18 04:21:14;;;;;;;40.15;34.20;;;9.10;99.90;;;;;;6274900;22;20015;-80
2023/03/18 04:23:39;;;;;;;37.60;33.10;;;9.10;99.90;;;;;;6275043;22;20396;-79
2023/03/18 04:26:05;;;;;;;40.60;31.48;;;9.10;99.90;;;;;;6247307;22;20091;-80
2023/03/18 04:28:31;;;;;;;37.65;31.50;;;9.10;99.90;;;;;;6275003;22;20026;-80
2023/03/18 04:30:57;;;;;;;37.15;29.17;;;9.10;99.90;;;;;;6274719;22;20051;-80
2023/03/18 04:33:23;;;;;;;40.17;31.38;;;9.10;99.90;;;;;;6246759;22;20449;-80
2023/03/18 04:35:48;;;;;;;37.08;33.08;;;9.10;99.90;;;;;;6274414;22;20069;-80
2023/03/18 04:38:17;;;;;;;43.78;33.17;;;9.10;99.90;;;;;;6274375;22;20083;-80
2023/03/18 04:40:42;;;;;;;41.97;32.70;;;9.20;99.90;;;;;;6247142;22;20011;-80
2023/03/18 04:43:11;;;;;;;33.15;28.05;;;9.10;99.90;;;;;;6274608;22;20078;-80
2023/03/18 04:45:36;;;;;;;38.75;31.13;;;9.10;99.90;;;;;;6246810;22;20438;-80
2023/03/18 04:48:03;;;;;;;38.63;32.45;;;9.10;99.90;;;;;;6246547;22;20026;-80
2023/03/18 04:50:28;;;;;;;42.20;31.83;;;9.10;99.90;;;;;;6274087;22;20075;-80
2023/03/18 04:52:54;;;;;;;34.20;28.85;;;9.00;99.90;;;;;;6247092;22;20054;-79
2023/03/18 04:55:20;;;;;;;41.38;31.00;;;9.10;99.90;;;;;;6274392;22;20015;-80
2023/03/18 04:57:47;;;;;;;41.28;32.95;;;9.00;99.90;;;;;;6247620;22;20011;-80
2023/03/18 05:00:16;;;;;;;38.85;33.20;;;9.10;99.90;;;;;;6246630;22;20015;-79
2023/03/18 05:02:42;;;;;;;37.53;32.22;;;9.10;99.90;;;;;;6273219;22;20039;-79
2023/03/18 05:05:09;;;;;;;43.55;32.60;;;9.10;99.90;;;;;;6246615;22;20346;-80
2023/03/18 05:07:35;;;;;;;43.97;36.15;;;9.00;99.90;;;;;;6274300;22;20074;-79
2023/03/18 05:10:05;;;;;;;43.50;34.63;;;9.00;99.90;;;;;;6274224;22;20008;-79
2023/03/18 05:12:31;;;;;;;42.85;34.70;;;9.10;99.90;;;;;;6274272;22;20050;-79
2023/03/18 05:14:57;;;;;;;44.05;35.53;;;9.00;99.90;;;;;;6246731;22;20023;-79
2023/03/18 05:17:23;;;;;;;48.15;37.33;;;9.10;99.90;;;;;;6273613;22;20019;-80
2023/03/18 05:19:49;;;;;;;44.63;36.83;;;9.10;99.90;;;;;;6274112;22;20007;-80
2023/03/18 05:22:17;;;;;;;41.28;33.17;;;9.00;99.90;;;;;;6274114;22;20251;-80
2023/03/18 05:24:44;;;;;;;40.15;31.20;;;9.00;99.90;;;;;;6273902;22;20019;-80
2023/03/18 05:27:11;;;;;;;39.42;33.58;;;9.10;99.90;;;;;;6246521;22;20320;-80
2023/03/18 05:29:39;;;;;;;42.22;34.47;;;9.10;99.90;;;;;;6246498;22;20083;-79
2023/03/18 05:32:08;;;;;;;42.30;32.78;;;9.10;99.90;;;;;;6245621;22;20057;-80
2023/03/18 05:34:36;;;;;;;41.35;32.40;;;9.20;99.90;;;;;;6246699;22;20012;-80
2023/03/18 05:37:03;;;;;;;37.25;30.10;;;9.20;99.90;;;;;;6246473;22;20377;-80
2023/03/18 05:39:30;;;;;;;45.10;34.40;;;9.20;99.90;;;;;;6246369;22;20011;-80
2023/03/18 05:41:56;;;;;;;40.90;33.35;;;9.20;99.90;;;;;;6246550;22;20003;-80
2023/03/18 05:44:22;;;;;;;35.55;29.27;;;9.20;99.90;;;;;;6273857;22;20015;-80
2023/03/18 05:46:49;;;;;;;40.30;32.17;;;9.20;99.90;;;;;;6245600;22;20015;-80
2023/03/18 05:49:15;;;;;;;42.17;35.08;;;9.30;99.90;;;;;;6246336;22;20051;-80
2023/03/18 05:51:41;;;;;;;38.20;31.40;;;9.30;99.90;;;;;;6273716;22;20012;-80
2023/03/18 05:54:08;;;;;;;43.00;31.63;;;9.40;99.90;;;;;;6246286;22;20016;-80
2023/03/18 05:56:34;;;;;;;39.30;33.15;;;9.30;99.90;;;;;;6273548;22;20373;-80
2023/03/18 05:58:59;;;;;;;42.63;30.80;;;9.30;99.90;;;;;;6221070;22;20086;-80
2023/03/18 06:01:25;;;;;;;37.65;30.60;;;9.30;99.90;;;;;;6220735;22;20430;-80
2023/03/18 06:03:52;;;;;;;38.20;32.67;;;9.40;99.90;;;;;;6273222;22;20043;-79
2023/03/18 06:06:18;;;;;;;38.03;30.98;;;9.30;99.90;;;;;;6246202;22;20016;-78
2023/03/18 06:08:45;;;;;;;38.65;31.65;;;9.30;99.90;;;;;;6246372;22;20012;-80
2023/03/18 06:11:11;;;;;;;41.42;33.38;;;9.30;99.90;;;;;;6273696;22;20047;-80
2023/03/18 06:13:37;;;;;;;41.05;31.55;;;9.30;99.90;;;;;;6272862;22;20019;-80
2023/03/18 06:16:04;;;;;;;40.92;31.30;;;9.50;99.90;;;;;;6246723;22;20342;-80
2023/03/18 06:18:29;;;;;;;42.95;32.92;;;9.30;99.90;;;;;;6220895;22;20030;-80
2023/03/18 06:20:56;;;;;;;42.20;33.20;;;9.30;99.90;;;;;;6246397;22;20019;-80
2023/03/18 06:23:21;;;;;;;37.47;29.60;;;9.40;99.90;;;;;;6273371;22;20150;-80
2023/03/18 06:25:48;;;;;;;42.28;33.70;;;9.30;99.90;;;;;;6246183;22;20039;-80
2023/03/18 06:28:14;;;;;;;44.10;32.90;;;9.40;99.90;;;;;;6220571;22;20008;-79
2023/03/18 06:30:40;;;;;;;37.15;31.48;;;9.40;99.90;;;;;;6246377;22;20069;-79
2023/03/18 06:33:06;;;;;;;39.25;31.10;;;9.50;99.90;;;;;;6220939;22;20004;-79
2023/03/18 06:35:31;;;;;;;39.97;29.45;;;9.50;99.90;;;;;;6246940;22;20087;-79
2023/03/18 06:37:57;;;;;;;41.10;29.88;;;9.50;99.90;;;;;;6246470;22;20479;-79
2023/03/18 06:40:23;;;;;;;38.58;31.35;;;9.50;99.90;;;;;;6246982;22;20330;-79
2023/03/18 06:42:49;;;;;;;39.17;30.08;;;9.50;99.90;;;;;;6246429;22;20050;-79
2023/03/18 06:45:16;;;;;;;46.05;32.80;;;9.60;99.90;;;;;;6246315;22;20365;-79
2023/03/18 06:47:42;;;;;;;44.95;34.08;;;9.60;99.90;;;;;;6246327;22;20411;-80
2023/03/18 06:50:09;;;;;;;38.63;32.17;;;9.60;99.90;;;;;;6246467;22;20008;-79
2023/03/18 06:52:36;;;;;;;42.83;33.47;;;9.70;99.90;;;;;;6246357;22;20012;-79
2023/03/18 06:55:03;;;;;;;42.88;35.40;;;9.80;99.90;;;;;;6273929;22;20023;-79
2023/03/18 06:57:29;;;;;;;44.15;33.47;;;9.80;99.90;;;;;;6273663;22;20045;-79
2023/03/18 06:59:54;;;;;;;40.17;33.17;;;9.90;99.90;;;;;;6246871;22;20023;-79
2023/03/18 07:02:22;;;;;;;40.67;33.70;;;9.90;99.90;;;;;;6273501;22;20011;-79
2023/03/18 07:04:48;;;;;;;44.85;34.17;;;10.00;99.90;;;;;;6221449;22;20042;-79
2023/03/18 07:07:17;;;;;;;44.75;35.13;;;10.10;99.90;;;;;;6274161;22;20010;-80
2023/03/18 07:09:43;;;;;;;39.22;33.65;;;10.20;99.90;;;;;;6275107;22;20012;-79
2023/03/18 07:12:12;;;;;;;41.33;33.90;;;10.10;99.90;;;;;;6247607;22;20012;-79
2023/03/18 07:14:39;;;;;;;42.35;35.85;;;10.20;99.90;;;;;;6275330;22;20369;-79
2023/03/18 07:17:05;;;;;;;44.92;37.08;;;10.30;99.90;;;;;;6247769;22;20154;-78
2023/03/18 07:19:32;;;;;;;42.75;33.78;;;10.60;99.90;;;;;;6275257;22;20012;-79
2023/03/18 07:21:58;;;;;;;40.80;32.22;;;11.10;99.90;;;;;;6248115;22;20066;-79
2023/03/18 07:24:25;;;;;;;39.67;32.35;;;11.00;99.90;;;;;;6275000;22;20450;-79
2023/03/18 07:26:51;;;;;;;40.38;32.75;;;11.30;99.90;;;;;;6247472;22;20019;-78
2023/03/18 07:29:18;;;;;;;38.40;32.65;;;11.20;99.90;;;;;;6248279;22;20065;-79
2023/03/18 07:31:44;;;;;;;40.20;32.83;;;11.30;99.90;;;;;;6275857;22;20003;-79
2023/03/18 07:34:10;;;;;;;36.40;31.67;;;11.30;99.90;;;;;;6247863;22;20095;-80
2023/03/18 07:36:37;;;;;;;38.47;29.50;;;11.40;99.90;;;;;;6274663;22;20027;-79
2023/03/18 07:39:04;;;;;;;39.70;32.28;;;11.50;99.90;;;;;;6274210;22;20105;-80
2023/03/18 07:41:30;;;;;;;34.55;30.70;;;11.50;99.90;;;;;;6274583;22;20350;-79
2023/03/18 07:43:55;;;;;;;35.60;30.13;;;11.60;99.90;;;;;;6248036;22;20007;-80
2023/03/18 07:46:21;;;;;;;38.08;32.30;;;11.60;99.90;;;;;;6274875;22;20042;-79
2023/03/18 07:48:47;;;;;;;37.33;30.13;;;11.60;99.90;;;;;;6274674;22;20091;-79
2023/03/18 07:51:14;;;;;;;36.03;29.30;;;11.60;99.90;;;;;;6247036;22;20016;-79
2023/03/18 07:53:40;;;;;;;35.15;29.85;;;11.50;99.90;;;;;;6275932;22;20022;-79
2023/03/18 07:56:08;;;;;;;39.38;29.88;;;11.50;99.90;;;;;;6247408;22;20094;-82
2023/03/18 07:58:34;;;;;;;37.45;31.85;;;11.50;99.90;;;;;;6273236;22;20065;-80
2023/03/18 08:01:00;;;;;;;33.55;29.88;;;11.40;99.90;;;;;;6246784;22;20012;-80
2023/03/18 08:03:26;;;;;;;36.08;29.42;;;11.50;99.90;;;;;;6273944;22;20011;-80
2023/03/18 08:05:52;;;;;;;34.80;30.83;;;11.50;99.90;;;;;;6221548;22;20016;-80
2023/03/18 08:08:18;;;;;;;32.35;28.58;;;11.40;99.90;;;;;;6273587;22;20015;-80
2023/03/18 08:10:44;;;;;;;34.42;28.67;;;11.30;99.90;;;;;;6218966;22;20331;-80
2023/03/18 08:13:09;;;;;;;34.95;27.75;;;11.40;99.90;;;;;;6244697;22;20012;-80
2023/03/18 08:15:35;;;;;;;37.22;30.52;;;11.40;99.90;;;;;;6245339;22;20330;-80
2023/03/18 08:18:01;;;;;;;34.05;28.85;;;11.30;99.90;;;;;;6271991;22;20360;-79
2023/03/18 08:20:27;;;;;;;35.15;27.83;;;11.20;99.90;;;;;;6244552;22;20047;-80
2023/03/18 08:22:53;;;;;;;37.67;28.73;;;11.20;99.90;;;;;;6219597;22;20016;-80
2023/03/18 08:25:20;;;;;;;35.40;29.30;;;11.20;99.90;;;;;;6219022;22;20015;-80
2023/03/18 08:27:46;;;;;;;34.20;28.42;;;11.30;99.90;;;;;;6245230;22;20018;-79
2023/03/18 08:30:13;;;;;;;30.38;27.08;;;11.20;99.90;;;;;;6272602;22;20086;-80
2023/03/18 08:32:39;;;;;;;33.63;28.23;;;11.20;99.90;;;;;;6246509;22;20034;-80
2023/03/18 08:35:05;;;;;;;32.22;28.67;;;11.30;99.90;;;;;;6274479;22;20391;-80
2023/03/18 08:37:31;;;;;;;34.58;28.90;;;11.40;99.90;;;;;;6246888;22;20414;-80
2023/03/18 08:39:58;;;;;;;32.47;27.67;;;11.60;99.90;;;;;;6221317;22;20043;-80
2023/03/18 08:42:23;;;;;;;32.95;27.67;;;11.60;99.90;;;;;;6246915;22;20027;-80
2023/03/18 08:44:49;;;;;;;33.75;27.75;;;11.80;99.90;;;;;;6221609;22;20066;-79
2023/03/18 08:47:15;;;;;;;31.35;26.95;;;11.90;99.90;;;;;;6246833;22;20008;-79
2023/03/18 08:49:40;;;;;;;31.88;27.27;;;12.00;99.90;;;;;;6221689;22;20134;-80
2023/03/18 08:52:06;;;;;;;28.98;25.33;;;12.00;99.90;;;;;;6247139;22;20438;-79
2023/03/18 08:54:32;;;;;;;32.55;25.85;;;12.00;99.90;;;;;;6246665;22;20012;-80
2023/03/18 08:56:59;;;;;;;34.55;26.60;;;12.00;99.90;;;;;;6246838;22;20011;-80
2023/03/18 08:59:25;;;;;;;32.53;25.83;;;12.00;99.90;;;;;;6247192;22;20061;-80
2023/03/18 09:01:52;;;;;;;28.95;25.80;;;12.00;99.90;;;;;;6246726;22;20373;-80
2023/03/18 09:04:18;;;;;;;30.70;25.70;;;12.00;99.90;;;;;;6246447;22;20170;-80
2023/03/18 09:06:44;;;;;;;27.98;25.05;;;12.00;99.90;;;;;;6246618;22;20477;-80
2023/03/18 09:09:10;;;;;;;35.03;25.80;;;12.00;99.90;;;;;;6273577;22;20009;-80
2023/03/18 09:11:37;;;;;;;29.88;26.50;;;12.00;99.90;;;;;;6246634;22;20008;-80
2023/03/18 09:14:03;;;;;;;34.20;27.80;;;12.10;99.90;;;;;;6221482;22;20469;-80
2023/03/18 09:16:29;;;;;;;31.95;27.23;;;12.20;99.90;;;;;;6246605;22;20012;-80
2023/03/18 09:18:55;;;;;;;36.03;27.55;;;12.20;99.90;;;;;;6221277;22;20012;-80
2023/03/18 09:21:21;;;;;;;33.92;27.30;;;12.30;99.90;;;;;;6246841;22;20007;-80
2023/03/18 09:23:48;;;;;;;34.33;25.75;;;12.60;99.90;;;;;;6220738;22;20020;-80
2023/03/18 09:26:14;;;;;;;35.85;28.13;;;12.80;99.90;;;;;;6221452;22;20340;-80
2023/03/18 09:28:39;;;;;;;30.63;26.58;;;13.10;99.90;;;;;;6246781;22;20101;-80
2023/03/18 09:31:05;;;;;;;28.48;25.45;;;13.20;99.90;;;;;;6273777;22;20294;-80
2023/03/18 09:33:31;;;;;;;30.20;25.60;;;13.30;99.90;;;;;;6247121;22;20075;-80
2023/03/18 09:35:57;;;;;;;31.92;25.88;;;13.60;99.90;;;;;;6221216;22;20477;-80
2023/03/18 09:38:22;;;;;;;34.90;25.33;;;13.80;99.90;;;;;;6245881;22;20022;-80
2023/03/18 09:41:23;;;;;;;29.40;25.05;;;14.00;99.90;;;;;;6246393;22;20095;-80
2023/03/18 09:44:18;;;;;;;26.85;23.52;;;14.30;99.90;;;;;;6246537;22;20007;-80
2023/03/18 09:46:56;;;;;;;28.73;23.90;;;14.50;99.90;;;;;;6212583;22;20322;-80
2023/03/18 09:49:59;;;;;;;26.85;23.65;;;14.50;99.90;;;;;;6273899;22;20330;-80
2023/03/18 09:52:41;;;;;;;31.30;24.88;;;14.40;99.90;;;;;;6245773;22;20015;-80
2023/03/18 09:55:16;;;;;;;28.92;23.40;;;14.40;99.90;;;;;;6246855;22;20019;-80
2023/03/18 09:57:45;;;;;;;27.65;23.20;;;14.20;99.90;;;;;;6246981;22;20034;-80
2023/03/18 10:00:12;;;;;;;30.55;24.70;;;14.10;99.90;;;;;;6220931;22;20090;-80
2023/03/18 10:02:54;;;;;;;26.50;23.70;;;14.00;99.90;;;;;;6246247;22;20145;-80
2023/03/18 10:05:47;;;;;;;29.85;25.15;;;14.00;99.90;;;;;;6246405;22;20430;-80
2023/03/18 10:08:30;;;;;;;28.63;25.42;;;14.00;99.90;;;;;;6221128;22;20023;-80
2023/03/18 10:11:00;;;;;;;;;;;14.30;99.90;;;;;;6221477;22;20007;-80
2023/03/18 10:13:34;;;;;;;29.52;24.85;;;14.40;99.90;;;;;;6246393;22;20241;-80
2023/03/18 10:16:03;;;;;;;27.67;23.02;;;14.60;99.90;;;;;;6220887;22;20012;-80
2023/03/18 10:18:38;;;;;;;34.00;23.95;;;14.60;99.90;;;;;;6220995;22;20019;-80
2023/03/18 10:21:26;;;;;;;26.98;23.88;;;14.60;99.90;;;;;;6220298;22;20062;-80
2023/03/18 10:24:26;;;;;;;32.17;25.15;;;14.70;99.90;;;;;;6246680;22;20087;-80
2023/03/18 10:27:15;;;;;;;27.60;24.08;;;14.80;99.90;;;;;;6246445;22;20058;-80
2023/03/18 10:30:37;;;;;;;30.40;25.15;;;14.80;99.90;;;;;;6273927;22;20008;-80
2023/03/18 10:33:17;;;;;;;31.98;26.60;;;14.70;99.90;;;;;;6149980;23;20052;-80
2023/03/18 10:36:22;;;;;;;34.33;27.85;;;14.70;99.90;;;;;;6124706;23;20025;-80
2023/03/18 10:38:50;;;;;;;33.63;27.40;;;14.70;99.90;;;;;;6096048;23;20075;-80
2023/03/18 10:41:27;;;;;;;33.25;27.75;;;14.70;99.90;;;;;;6150186;23;20045;-80
2023/03/18 10:43:54;;;;;;;29.95;25.92;;;14.70;99.90;;;;;;6103123;23;20414;-79
2023/03/18 10:46:22;;;;;;;28.73;24.77;;;14.80;99.90;;;;;;6102648;23;20317;-80
2023/03/18 10:48:59;;;;;;;31.38;26.80;;;14.80;99.90;;;;;;6102993;23;20025;-80
2023/03/18 10:51:37;;;;;;;30.75;27.00;;;14.80;99.90;;;;;;6102400;23;20014;-80
2023/03/18 10:54:11;;;;;;;30.83;25.17;;;14.90;99.90;;;;;;6102524;23;20018;-80
2023/03/18 10:56:37;;;;;;;28.80;25.20;;;15.10;99.90;;;;;;6127008;23;20024;-80
2023/03/18 10:59:15;;;;;;;27.45;24.08;;;15.30;99.90;;;;;;6102650;23;20009;-80
2023/03/18 11:01:44;;;;;;;30.45;24.98;;;15.50;99.90;;;;;;6102506;23;20341;-80
2023/03/18 11:04:20;;;;;;;29.73;24.05;;;15.70;99.90;;;;;;6101629;23;20056;-79
2023/03/18 11:07:00;;;;;;;26.20;23.40;;;15.80;99.90;;;;;;6192203;22;20016;-80
2023/03/18 11:09:41;;;;;;;29.60;24.10;;;15.80;99.90;;;;;;6222873;22;20016;-80
2023/03/18 11:12:15;;;;;;;26.60;23.83;;;15.80;99.90;;;;;;6248202;22;20008;-80
2023/03/18 11:14:49;;;;;;;25.52;21.65;;;15.70;99.90;;;;;;6275819;22;20065;-79
2023/03/18 11:17:32;;;;;;;24.88;22.00;;;15.60;99.90;;;;;;6222970;22;20031;-79
2023/03/18 11:20:23;;;;;;;26.58;21.08;;;15.40;99.90;;;;;;6247934;22;20023;-79
2023/03/18 11:22:51;;;;;;;26.30;21.50;;;15.30;99.90;;;;;;6248232;22;20011;-79
2023/03/18 11:25:18;;;;;;;25.50;21.17;;;15.40;99.90;;;;;;6222783;22;20047;-79
2023/03/18 11:27:56;;;;;;;23.95;19.40;;;15.40;99.90;;;;;;6248684;22;20032;-79
2023/03/18 11:30:34;;;;;;;24.52;20.25;;;15.40;99.90;;;;;;6248116;22;20019;-79
2023/03/18 11:33:11;;;;;;;24.73;21.45;;;15.50;99.90;;;;;;6222413;22;20008;-79
2023/03/18 11:35:52;;;;;;;26.92;20.52;;;15.50;99.90;;;;;;6248228;22;20016;-79
2023/03/18 11:38:26;;;;;;;27.05;22.27;;;15.20;99.90;;;;;;6247989;22;20406;-79
2023/03/18 11:40:51;;;;;;;26.02;20.45;;;15.10;99.90;;;;;;6275438;22;20011;-80
2023/03/18 11:43:24;;;;;;;26.50;20.88;;;15.30;99.90;;;;;;6247981;22;20012;-78
2023/03/18 11:45:58;;;;;;;23.13;20.23;;;15.50;99.90;;;;;;6275213;22;20007;-79
2023/03/18 11:48:37;;;;;;;23.40;20.67;;;15.70;99.90;;;;;;6274797;22;20039;-79
2023/03/18 11:51:21;;;;;;;24.13;20.02;;;15.90;99.90;;;;;;6222529;22;20015;-79
2023/03/18 11:54:12;;;;;;;19.75;17.10;;;16.10;99.90;;;;;;6247185;22;20454;-79
2023/03/18 11:56:42;;;;;;;22.40;17.63;;;16.10;99.90;;;;;;6247863;22;20034;-79
2023/03/18 11:59:36;;;;;;;22.45;18.70;;;16.00;99.90;;;;;;6247842;22;20012;-79
2023/03/18 12:02:15;;;;;;;23.27;19.05;;;16.00;99.90;;;;;;6221857;22;20047;-79
2023/03/18 12:04:49;;;;;;;18.73;16.73;;;16.00;99.90;;;;;;6247753;22;20112;-79
2023/03/18 12:07:29;;;;;;;24.13;16.92;;;16.10;99.90;;;;;;6248211;22;20019;-79
2023/03/18 12:10:21;;;;;;;16.42;14.63;;;16.10;99.90;;;;;;6222594;22;20020;-79
2023/03/18 12:13:04;;;;;;;17.13;12.63;;;16.20;99.90;;;;;;6274880;22;20016;-79
2023/03/18 12:15:54;;;;;;;18.40;13.30;;;16.10;99.90;;;;;;6247866;22;20373;-79
2023/03/18 12:18:37;;;;;;;18.77;14.85;;;16.00;99.90;;;;;;6246918;22;20026;-79
2023/03/18 12:21:23;;;;;;;18.67;13.10;;;16.20;99.90;;;;;;6222496;22;20310;-79
2023/03/18 12:24:16;;;;;;;14.82;13.30;;;16.40;99.90;;;;;;6222410;22;20011;-79
2023/03/18 12:26:50;;;;;;;16.53;12.93;;;16.40;99.90;;;;;;6247647;22;20468;-79
2023/03/18 12:29:51;;;;;;;15.40;13.63;;;16.40;99.90;;;;;;6248142;22;20012;-78
2023/03/18 12:32:43;;;;;;;17.00;12.27;;;16.40;99.90;;;;;;6246819;22;20007;-79
2023/03/18 12:35:33;;;;;;;12.90;10.48;;;16.50;99.90;;;;;;6247626;22;20015;-79
2023/03/18 12:38:39;;;;;;;14.13;10.60;;;16.40;99.90;;;;;;6222088;22;20016;-79
2023/03/18 12:41:29;;;;;;;11.43;10.18;;;16.40;99.90;;;;;;6247607;22;20021;-79
2023/03/18 12:44:03;;;;;;;13.35;9.85;;;16.60;99.90;;;;;;6248183;22;20043;-79
2023/03/18 12:46:35;;;;;;;12.73;9.50;;;16.50;99.90;;;;;;6274281;22;20022;-80